Time;durP1;ratioP1;P1;durP2;ratioP2;P2;SDS_P1;SDS_P2;PMS_P1;PMS_P2;Temp;Humidity;BMP_temperature;BMP_pressure;BME280_temperature;BME280_humidity;BME280_pressure;Samples;Min_cycle;Max_cycle;Signal;HPM_P1;HPM_P2
2022/03/19 00:01:00;;;;;;;;;;;;;;;;;;5032210;28;19912;-51
2022/03/19 00:03:26;;;;;;;;;;;;;;;;;;5031943;28;20435;-52
2022/03/19 00:05:52;;;;;;;;;;;;;;;;;;5032136;28;19909;-50
2022/03/19 00:08:18;;;;;;;;;;;;;;;;;;5030818;28;20028;-51
2022/03/19 00:10:44;;;;;;;;;;;;;;;;;;5035450;28;19912;-50
2022/03/19 00:13:10;;;;;;;;;;;;;;;;;;5034610;28;20006;-51
2022/03/19 00:15:36;;;;;;;;;;;;;;;;;;5035818;28;19905;-51
2022/03/19 00:18:02;;;;;;;;;;;;;;;;;;5035908;28;19955;-51
2022/03/19 00:20:28;;;;;;;;;;;;;;;;;;5035708;28;20381;-51
2022/03/19 00:22:54;;;;;;;;;;;;;;;;;;5035859;28;19912;-51
2022/03/19 00:25:20;;;;;;;;;;;;;;;;;;5035667;28;19905;-51
2022/03/19 00:27:46;;;;;;;;;;;;;;;;;;5035613;28;19959;-50
2022/03/19 00:30:12;;;;;;;;;;;;;;;;;;5035898;28;19905;-50
2022/03/19 00:32:38;;;;;;;;;;;;;;;;;;5035522;28;19905;-50
2022/03/19 00:35:04;;;;;;;;;;;;;;;;;;5035761;28;20398;-51
2022/03/19 00:37:32;;;;;;;;;;;;;;;;;;5035402;28;19905;-52
2022/03/19 00:39:57;;;;;;;;;;;;;;;;;;5035665;28;20011;-50
2022/03/19 00:42:24;;;;;;;;;;;;;;;;;;5035416;28;19948;-50
2022/03/19 00:44:50;;;;;;;;;;;;;;;;;;5035353;28;20279;-49
2022/03/19 00:47:16;;;;;;;;;;;;;;;;;;5035241;28;19905;-51
2022/03/19 00:49:42;;;;;;;;;;;;;;;;;;5035209;28;19905;-51
2022/03/19 00:52:07;;;;;;;;;;;;;;;;;;5035191;28;19912;-51
2022/03/19 00:54:33;;;;;;;;;;;;;;;;;;5035162;28;19988;-51
2022/03/19 00:56:59;;;;;;;;;;;;;;;;;;5035085;28;20012;-50
2022/03/19 00:59:26;;;;;;;;;;;;;;;;;;5035098;28;20287;-50
2022/03/19 01:01:51;;;;;;;;;;;;;;;;;;5034969;28;19905;-49
2022/03/19 01:04:17;;;;;;;;;;;;;;;;;;5034788;28;20287;-52
2022/03/19 01:06:43;;;;;;;;;;;;;;;;;;5034911;28;20011;-50
2022/03/19 01:09:09;;;;;;;;;;;;;;;;;;5034921;28;19905;-51
2022/03/19 01:11:35;;;;;;;;;;;;;;;;;;5034812;28;19924;-51
2022/03/19 01:14:01;;;;;;;;;;;;;;;;;;5035030;28;19940;-52
2022/03/19 01:16:27;;;;;;;;;;;;;;;;;;5034835;28;20352;-50
2022/03/19 01:18:52;;;;;;;;;;;;;;;;;;5034711;28;19971;-51
2022/03/19 01:21:18;;;;;;;;;;;;;;;;;;5034602;28;19905;-51
2022/03/19 01:23:44;;;;;;;;;;;;;;;;;;5034603;28;19905;-51
2022/03/19 01:26:10;;;;;;;;;;;;;;;;;;5034574;28;19927;-50
2022/03/19 01:28:36;;;;;;;;;;;;;;;;;;5034447;28;19905;-51
2022/03/19 01:31:02;;;;;;;;;;;;;;;;;;5034737;28;19995;-51
2022/03/19 01:33:28;;;;;;;;;;;;;;;;;;5034736;28;19912;-50
2022/03/19 01:35:54;;;;;;;;;;;;;;;;;;5034457;28;19905;-51
2022/03/19 01:38:19;;;;;;;;;;;;;;;;;;5034291;28;19905;-51
2022/03/19 01:40:45;;;;;;;;;;;;;;;;;;5034298;28;20403;-50
2022/03/19 01:43:11;;;;;;;;;;;;;;;;;;5034219;28;20004;-50
2022/03/19 01:45:37;;;;;;;;;;;;;;;;;;5034237;28;20417;-50
2022/03/19 01:48:03;;;;;;;;;;;;;;;;;;5034211;28;19909;-51
2022/03/19 01:50:29;;;;;;;;;;;;;;;;;;5034330;28;20286;-50
2022/03/19 01:52:55;;;;;;;;;;;;;;;;;;5034034;28;19959;-51
2022/03/19 01:55:21;;;;;;;;;;;;;;;;;;5034393;28;19905;-50
2022/03/19 01:57:47;;;;;;;;;;;;;;;;;;5033931;28;20256;-51
2022/03/19 02:00:13;;;;;;;;;;;;;;;;;;5033689;28;20012;-51
2022/03/19 02:02:39;;;;;;;;;;;;;;;;;;5033651;28;19917;-51
2022/03/19 02:05:05;;;;;;;;;;;;;;;;;;5034103;28;19944;-52
2022/03/19 02:07:30;;;;;;;;;;;;;;;;;;5033698;28;19959;-51
2022/03/19 02:09:56;;;;;;;;;;;;;;;;;;5033730;28;19905;-50
2022/03/19 02:12:22;;;;;;;;;;;;;;;;;;5033707;28;19909;-50
2022/03/19 02:14:48;;;;;;;;;;;;;;;;;;5033707;28;19951;-50
2022/03/19 02:17:14;;;;;;;;;;;;;;;;;;5033557;28;19912;-50
2022/03/19 02:19:40;;;;;;;;;;;;;;;;;;5033532;28;20344;-52
2022/03/19 02:22:06;;;;;;;;;;;;;;;;;;5033476;28;19905;-50
2022/03/19 02:27:16;;;;;;;;;;;;;;;;;;5033432;28;19912;-50
2022/03/19 02:29:42;;;;;;;;;;;;;;;;;;5033439;28;19909;-50
2022/03/19 02:32:08;;;;;;;;;;;;;;;;;;5032952;28;20000;-50
2022/03/19 02:34:33;;;;;;;;;;;;;;;;;;5033269;28;19912;-53
2022/03/19 02:36:59;;;;;;;;;;;;;;;;;;5033210;28;20379;-50
2022/03/19 02:39:28;;;;;;;;;;;;;;;;;;5033159;28;19920;-49
2022/03/19 02:41:54;;;;;;;;;;;;;;;;;;5033443;28;19905;-52
2022/03/19 02:44:20;;;;;;;;;;;;;;;;;;5033075;28;19911;-50
2022/03/19 02:46:46;;;;;;;;;;;;;;;;;;5033075;28;19905;-50
2022/03/19 02:49:12;;;;;;;;;;;;;;;;;;5033106;28;19909;-51
2022/03/19 02:51:38;;;;;;;;;;;;;;;;;;5033267;28;19905;-52
2022/03/19 02:54:04;;;;;;;;;;;;;;;;;;5032911;28;20012;-51
2022/03/19 02:56:29;;;;;;;;;;;;;;;;;;5032862;28;20433;-50
2022/03/19 02:58:55;;;;;;;;;;;;;;;;;;5032773;28;19966;-51
2022/03/19 03:01:21;;;;;;;;;;;;;;;;;;5032797;28;20375;-51
2022/03/19 03:03:48;;;;;;;;;;;;;;;;;;5032016;28;20003;-50
2022/03/19 03:06:14;;;;;;;;;;;;;;;;;;5032046;28;19927;-51
2022/03/19 03:08:40;;;;;;;;;;;;;;;;;;5032116;28;19958;-52
2022/03/19 03:11:06;;;;;;;;;;;;;;;;;;5031945;28;19991;-53
2022/03/19 03:13:32;;;;;;;;;;;;;;;;;;5031895;28;19912;-51
2022/03/19 03:15:58;;;;;;;;;;;;;;;;;;5031837;28;19905;-50
2022/03/19 03:18:24;;;;;;;;;;;;;;;;;;5031772;28;20389;-52
2022/03/19 03:20:50;;;;;;;;;;;;;;;;;;5031762;28;19912;-49
2022/03/19 03:23:15;;;;;;;;;;;;;;;;;;5031740;28;20435;-50
2022/03/19 03:25:41;;;;;;;;;;;;;;;;;;5031798;28;19912;-50
2022/03/19 03:28:07;;;;;;;;;;;;;;;;;;5031792;28;19944;-49
2022/03/19 03:30:33;;;;;;;;;;;;;;;;;;5031741;28;19949;-50
2022/03/19 03:32:59;;;;;;;;;;;;;;;;;;5031620;28;19963;-52
2022/03/19 03:35:25;;;;;;;;;;;;;;;;;;5031557;28;19905;-50
2022/03/19 03:37:51;;;;;;;;;;;;;;;;;;5031885;28;20271;-50
2022/03/19 03:40:18;;;;;;;;;;;;;;;;;;5031505;28;19924;-50
2022/03/19 03:42:44;;;;;;;;;;;;;;;;;;5031807;28;19906;-51
2022/03/19 03:45:10;;;;;;;;;;;;;;;;;;5033885;28;19911;-50
2022/03/19 03:47:36;;;;;;;;;;;;;;;;;;5035213;28;19905;-56
2022/03/19 03:50:01;;;;;;;;;;;;;;;;;;5035144;28;19905;-56
2022/03/19 03:52:30;;;;;;;;;;;;;;;;;;5035145;28;19912;-55
2022/03/19 03:54:55;;;;;;;;;;;;;;;;;;5035448;28;19905;-56
2022/03/19 03:57:21;;;;;;;;;;;;;;;;;;5035006;28;20395;-55
2022/03/19 03:59:50;;;;;;;;;;;;;;;;;;5034893;28;19952;-56
2022/03/19 04:02:16;;;;;;;;;;;;;;;;;;4998569;28;1046458;-56
2022/03/19 04:04:42;;;;;;;;;;;;;;;;;;5036366;28;19905;-56
2022/03/19 04:07:08;;;;;;;;;;;;;;;;;;5036213;28;19928;-55
2022/03/19 04:09:34;;;;;;;;;;;;;;;;;;5034855;28;19904;-57
2022/03/19 04:12:03;;;;;;;;;;;;;;;;;;5036089;28;19912;-55
2022/03/19 04:14:28;;;;;;;;;;;;;;;;;;5036085;28;19905;-56
2022/03/19 04:16:54;;;;;;;;;;;;;;;;;;5035991;28;19905;-55
2022/03/19 04:19:20;;;;;;;;;;;;;;;;;;5035910;28;20272;-56
2022/03/19 04:21:46;;;;;;;;;;;;;;;;;;5036039;28;19911;-56
2022/03/19 04:24:12;;;;;;;;;;;;;;;;;;5036199;28;19911;-55
2022/03/19 04:26:38;;;;;;;;;;;;;;;;;;5035857;28;19905;-56
2022/03/19 04:29:04;;;;;;;;;;;;;;;;;;5035819;28;19960;-56
2022/03/19 04:31:29;;;;;;;;;;;;;;;;;;5035702;28;20371;-57
2022/03/19 04:33:55;;;;;;;;;;;;;;;;;;5035718;28;19975;-58
2022/03/19 04:36:30;;;;;;;;;;;;;;;;;;5035683;28;19913;-57
2022/03/19 04:38:56;;;;;;;;;;;;;;;;;;5035555;28;19913;-57
2022/03/19 04:41:22;;;;;;;;;;;;;;;;;;5035650;28;20287;-57
2022/03/19 04:43:48;;;;;;;;;;;;;;;;;;5035487;28;20388;-56
2022/03/19 04:46:14;;;;;;;;;;;;;;;;;;5035475;28;19909;-57
2022/03/19 04:48:42;;;;;;;;;;;;;;;;;;5035457;28;19905;-57
2022/03/19 04:51:08;;;;;;;;;;;;;;;;;;5035388;28;20375;-57
2022/03/19 04:53:34;;;;;;;;;;;;;;;;;;5035373;28;19931;-57
2022/03/19 04:56:00;;;;;;;;;;;;;;;;;;5034870;28;20393;-58
2022/03/19 04:58:25;;;;;;;;;;;;;;;;;;5035275;28;19912;-55
2022/03/19 05:00:51;;;;;;;;;;;;;;;;;;5035226;28;19940;-58
2022/03/19 05:03:17;;;;;;;;;;;;;;;;;;5034934;28;20371;-58
2022/03/19 05:05:43;;;;;;;;;;;;;;;;;;5035333;28;19906;-58
2022/03/19 05:08:09;;;;;;;;;;;;;;;;;;5035081;28;19944;-58
2022/03/19 05:13:20;;;;;;;;;;;;;;;;;;5035121;28;19958;-58
2022/03/19 05:15:46;;;;;;;;;;;;;;;;;;5035649;28;19931;-57
2022/03/19 05:18:12;;;;;;;;;;;;;;;;;;5034939;28;20335;-57
2022/03/19 05:20:38;;;;;;;;;;;;;;;;;;5034966;28;19913;-57
2022/03/19 05:23:04;;;;;;;;;;;;;;;;;;5034758;28;19912;-57
2022/03/19 05:25:29;;;;;;;;;;;;;;;;;;5034741;28;19908;-58
2022/03/19 05:27:55;;;;;;;;;;;;;;;;;;5034660;28;19905;-57
2022/03/19 05:30:21;;;;;;;;;;;;;;;;;;5034649;28;19927;-57
2022/03/19 05:32:47;;;;;;;;;;;;;;;;;;5034560;28;20368;-57
2022/03/19 05:35:13;;;;;;;;;;;;;;;;;;5034656;28;19955;-57
2022/03/19 05:37:39;;;;;;;;;;;;;;;;;;5034552;28;19905;-57
2022/03/19 05:40:05;;;;;;;;;;;;;;;;;;5034356;28;19913;-58
2022/03/19 05:42:31;;;;;;;;;;;;;;;;;;5034399;28;19912;-58
2022/03/19 05:44:57;;;;;;;;;;;;;;;;;;5034378;28;20324;-56
2022/03/19 05:47:22;;;;;;;;;;;;;;;;;;5034344;28;20004;-57
2022/03/19 05:49:48;;;;;;;;;;;;;;;;;;5034281;28;19905;-57
2022/03/19 05:52:15;;;;;;;;;;;;;;;;;;5034201;28;19905;-57
2022/03/19 05:54:42;;;;;;;;;;;;;;;;;;5034239;28;20372;-57
2022/03/19 05:57:08;;;;;;;;;;;;;;;;;;5034510;28;19909;-56
2022/03/19 05:59:34;;;;;;;;;;;;;;;;;;5034298;28;20387;-57
2022/03/19 06:02:00;;;;;;;;;;;;;;;;;;5033775;28;19905;-57
2022/03/19 06:04:26;;;;;;;;;;;;;;;;;;5034241;28;19913;-57
2022/03/19 06:06:51;;;;;;;;;;;;;;;;;;5033118;28;19905;-56
2022/03/19 06:09:17;;;;;;;;;;;;;;;;;;5033851;28;20006;-57
2022/03/19 06:11:45;;;;;;;;;;;;;;;;;;5033926;28;19909;-56
2022/03/19 06:14:11;;;;;;;;;;;;;;;;;;5033892;28;19905;-57
2022/03/19 06:16:37;;;;;;;;;;;;;;;;;;5034030;28;19905;-57
2022/03/19 06:19:03;;;;;;;;;;;;;;;;;;5033651;28;19917;-57
2022/03/19 06:21:29;;;;;;;;;;;;;;;;;;5033738;28;19905;-56
2022/03/19 06:23:55;;;;;;;;;;;;;;;;;;5033909;28;20004;-56
2022/03/19 06:26:23;;;;;;;;;;;;;;;;;;5033846;28;19960;-57
2022/03/19 06:28:48;;;;;;;;;;;;;;;;;;5033677;28;19905;-56
2022/03/19 06:31:14;;;;;;;;;;;;;;;;;;5033858;28;20256;-57
2022/03/19 06:33:41;;;;;;;;;;;;;;;;;;5033465;28;19959;-58
2022/03/19 06:38:51;;;;;;;;;;;;;;;;;;5033400;28;19966;-58
2022/03/19 06:41:17;;;;;;;;;;;;;;;;;;5033262;28;20310;-58
2022/03/19 06:43:46;;;;;;;;;;;;;;;;;;5033566;28;19916;-58
2022/03/19 06:46:12;;;;;;;;;;;;;;;;;;5033249;28;19905;-57
2022/03/19 06:48:38;;;;;;;;;;;;;;;;;;5033201;28;20268;-57
2022/03/19 06:51:03;;;;;;;;;;;;;;;;;;5033377;28;19912;-50
2022/03/19 06:53:29;;;;;;;;;;;;;;;;;;5033065;28;20390;-52
2022/03/19 06:55:55;;;;;;;;;;;;;;;;;;5033279;28;19905;-50
2022/03/19 06:58:21;;;;;;;;;;;;;;;;;;5032739;28;19927;-50
2022/03/19 07:00:47;;;;;;;;;;;;;;;;;;5032740;28;20375;-50
2022/03/19 07:03:13;;;;;;;;;;;;;;;;;;5032434;28;19921;-50
2022/03/19 07:05:39;;;;;;;;;;;;;;;;;;5032709;28;19911;-50
2022/03/19 07:08:08;;;;;;;;;;;;;;;;;;5032772;28;19905;-50
2022/03/19 07:10:33;;;;;;;;;;;;;;;;;;5032607;28;19905;-50
2022/03/19 07:12:59;;;;;;;;;;;;;;;;;;5032585;28;19913;-49
2022/03/19 07:15:27;;;;;;;;;;;;;;;;;;5032540;28;20003;-49
2022/03/19 07:17:53;;;;;;;;;;;;;;;;;;5032741;28;19920;-49
2022/03/19 07:20:19;;;;;;;;;;;;;;;;;;5032652;28;20350;-51
2022/03/19 07:22:45;;;;;;;;;;;;;;;;;;5032458;28;19936;-49
2022/03/19 07:25:11;;;;;;;;;;;;;;;;;;5032675;28;20019;-58
2022/03/19 07:27:37;;;;;;;;;;;;;;;;;;5032696;28;19905;-58
2022/03/19 07:30:03;;;;;;;;;;;;;;;;;;5032890;28;20375;-57
2022/03/19 07:32:29;;;;;;;;;;;;;;;;;;5032808;28;19940;-58
2022/03/19 07:34:55;;;;;;;;;;;;;;;;;;5032578;28;19928;-57
2022/03/19 07:37:20;;;;;;;;;;;;;;;;;;5032463;28;20364;-57
2022/03/19 07:39:46;;;;;;;;;;;;;;;;;;5032436;28;19920;-56
2022/03/19 07:42:12;;;;;;;;;;;;;;;;;;5031205;28;19905;-57
2022/03/19 07:44:38;;;;;;;;;;;;;;;;;;5032555;28;19909;-51
2022/03/19 07:47:04;;;;;;;;;;;;;;;;;;5032442;28;20332;-49
2022/03/19 07:49:30;;;;;;;;;;;;;;;;;;5032428;28;19905;-50
2022/03/19 07:51:56;;;;;;;;;;;;;;;;;;5032483;28;19995;-49
2022/03/19 07:54:23;;;;;;;;;;;;;;;;;;5032474;28;19913;-50
2022/03/19 07:56:51;;;;;;;;;;;;;;;;;;5032730;28;19905;-49
2022/03/19 07:59:17;;;;;;;;;;;;;;;;;;5032288;28;19913;-49
2022/03/19 08:01:43;;;;;;;;;;;;;;;;;;5032384;28;19955;-50
2022/03/19 08:04:09;;;;;;;;;;;;;;;;;;5032240;28;20371;-50
2022/03/19 08:06:35;;;;;;;;;;;;;;;;;;5032264;28;19951;-50
2022/03/19 08:09:01;;;;;;;;;;;;;;;;;;5032354;28;19905;-50
2022/03/19 08:11:27;;;;;;;;;;;;;;;;;;5032281;28;19905;-51
2022/03/19 08:13:53;;;;;;;;;;;;;;;;;;5032250;28;20340;-54
2022/03/19 08:16:18;;;;;;;;;;;;;;;;;;5032238;28;19905;-50
2022/03/19 08:18:45;;;;;;;;;;;;;;;;;;5032130;28;20386;-50
2022/03/19 08:21:10;;;;;;;;;;;;;;;;;;5032544;28;19911;-54
2022/03/19 08:23:37;;;;;;;;;;;;;;;;;;5032193;28;19987;-54
2022/03/19 08:26:03;;;;;;;;;;;;;;;;;;5032133;28;20379;-53
2022/03/19 08:28:29;;;;;;;;;;;;;;;;;;5030811;28;19905;-54
2022/03/19 08:30:55;;;;;;;;;;;;;;;;;;5034288;28;19987;-54
2022/03/19 08:33:21;;;;;;;;;;;;;;;;;;5035998;28;19912;-53
2022/03/19 08:35:46;;;;;;;;;;;;;;;;;;5035583;28;19905;-50
2022/03/19 08:40:57;;;;;;;;;;;;;;;;;;5035693;28;19923;-48
2022/03/19 08:43:23;;;;;;;;;;;;;;;;;;5035898;28;19980;-50
2022/03/19 08:45:49;;;;;;;;;;;;;;;;;;5035781;28;19991;-51
2022/03/19 08:48:15;;;;;;;;;;;;;;;;;;5035320;28;19911;-50
2022/03/19 08:50:40;;;;;;;;;;;;;;;;;;5035379;28;19928;-50
2022/03/19 08:53:06;;;;;;;;;;;;;;;;;;5035412;28;19951;-52
2022/03/19 08:55:32;;;;;;;;;;;;;;;;;;5035276;28;19905;-51
2022/03/19 08:57:59;;;;;;;;;;;;;;;;;;5035649;28;19912;-49
2022/03/19 09:00:25;;;;;;;;;;;;;;;;;;5035472;28;20047;-50
2022/03/19 09:02:51;;;;;;;;;;;;;;;;;;5033661;28;19967;-49
2022/03/19 09:05:17;;;;;;;;;;;;;;;;;;5035145;28;19905;-51
2022/03/19 09:07:42;;;;;;;;;;;;;;;;;;5035081;28;19992;-50
2022/03/19 09:10:08;;;;;;;;;;;;;;;;;;5035044;28;20004;-50
2022/03/19 09:12:34;;;;;;;;;;;;;;;;;;5035030;28;19912;-49
2022/03/19 09:15:00;;;;;;;;;;;;;;;;;;5034972;28;19967;-49
2022/03/19 09:17:26;;;;;;;;;;;;;;;;;;5035244;28;19905;-51
2022/03/19 09:19:52;;;;;;;;;;;;;;;;;;5034757;28;20310;-48
2022/03/19 09:22:18;;;;;;;;;;;;;;;;;;5035112;28;19905;-49
2022/03/19 09:24:44;;;;;;;;;;;;;;;;;;5034686;28;19905;-50
2022/03/19 09:27:10;;;;;;;;;;;;;;;;;;5035005;28;19912;-50
2022/03/19 09:29:36;;;;;;;;;;;;;;;;;;5034626;28;19959;-49
2022/03/19 09:32:01;;;;;;;;;;;;;;;;;;5034627;28;20376;-50
2022/03/19 09:34:27;;;;;;;;;;;;;;;;;;5033347;28;19905;-48
2022/03/19 09:36:53;;;;;;;;;;;;;;;;;;5034561;28;19955;-50
2022/03/19 09:39:19;;;;;;;;;;;;;;;;;;5034450;28;19913;-49
2022/03/19 09:41:45;;;;;;;;;;;;;;;;;;5033234;28;19913;-50
2022/03/19 09:44:12;;;;;;;;;;;;;;;;;;5034549;28;19905;-50
2022/03/19 09:46:38;;;;;;;;;;;;;;;;;;5034252;28;19909;-49
2022/03/19 09:49:03;;;;;;;;;;;;;;;;;;5034579;28;19905;-50
2022/03/19 09:51:29;;;;;;;;;;;;;;;;;;5034269;28;19912;-49
2022/03/19 09:53:56;;;;;;;;;;;;;;;;;;5034276;28;19905;-50
2022/03/19 09:56:21;;;;;;;;;;;;;;;;;;5034549;28;19905;-50
2022/03/19 09:58:48;;;;;;;;;;;;;;;;;;5034055;28;19905;-49
2022/03/19 10:01:14;;;;;;;;;;;;;;;;;;5034078;28;20342;-48
2022/03/19 10:03:39;;;;;;;;;;;;;;;;;;5033897;28;20000;-49
2022/03/19 10:08:50;;;;;;;;;;;;;;;;;;5034229;28;20015;-50
2022/03/19 10:11:16;;;;;;;;;;;;;;;;;;5033866;28;20372;-50
2022/03/19 10:13:42;;;;;;;;;;;;;;;;;;5034111;28;20267;-54
2022/03/19 10:16:08;;;;;;;;;;;;;;;;;;5034249;28;19905;-49
2022/03/19 10:18:34;;;;;;;;;;;;;;;;;;5033508;28;19905;-49
2022/03/19 10:21:00;;;;;;;;;;;;;;;;;;5033527;28;19931;-51
2022/03/19 10:23:26;;;;;;;;;;;;;;;;;;5033548;28;19905;-50
2022/03/19 10:25:52;;;;;;;;;;;;;;;;;;5033377;28;20484;-50
2022/03/19 10:28:17;;;;;;;;;;;;;;;;;;5033309;28;19905;-51
2022/03/19 10:30:43;;;;;;;;;;;;;;;;;;5033429;28;20000;-49
2022/03/19 10:33:09;;;;;;;;;;;;;;;;;;5033333;28;19905;-53
2022/03/19 10:35:35;;;;;;;;;;;;;;;;;;5033292;28;20371;-51
2022/03/19 10:38:03;;;;;;;;;;;;;;;;;;5033178;28;19944;-50
2022/03/19 10:40:28;;;;;;;;;;;;;;;;;;5033257;28;20376;-51
2022/03/19 10:42:54;;;;;;;;;;;;;;;;;;5033204;28;19912;-51
2022/03/19 10:45:20;;;;;;;;;;;;;;;;;;5033116;28;20360;-53
2022/03/19 10:47:46;;;;;;;;;;;;;;;;;;5033041;28;19988;-50
2022/03/19 10:50:12;;;;;;;;;;;;;;;;;;5033277;28;19951;-51
2022/03/19 10:52:38;;;;;;;;;;;;;;;;;;5032577;28;20300;-51
2022/03/19 10:55:04;;;;;;;;;;;;;;;;;;5032846;28;19905;-50
2022/03/19 10:57:30;;;;;;;;;;;;;;;;;;5032912;28;19905;-50
2022/03/19 10:59:56;;;;;;;;;;;;;;;;;;5032785;28;19920;-50
2022/03/19 11:02:22;;;;;;;;;;;;;;;;;;5032416;28;19913;-52
2022/03/19 11:04:48;;;;;;;;;;;;;;;;;;5032792;28;20003;-49
2022/03/19 11:07:13;;;;;;;;;;;;;;;;;;5032733;28;19905;-52
2022/03/19 11:09:40;;;;;;;;;;;;;;;;;;5033000;28;19928;-50
2022/03/19 11:12:07;;;;;;;;;;;;;;;;;;5032705;28;19940;-53
2022/03/19 11:14:33;;;;;;;;;;;;;;;;;;5032889;28;19909;-51
2022/03/19 11:19:43;;;;;;;;;;;;;;;;;;5032600;28;20294;-49
2022/03/19 11:22:09;;;;;;;;;;;;;;;;;;5032526;28;19905;-50
2022/03/19 11:24:35;;;;;;;;;;;;;;;;;;5032486;28;19931;-50
2022/03/19 11:27:01;;;;;;;;;;;;;;;;;;5032405;28;19948;-52
2022/03/19 11:29:27;;;;;;;;;;;;;;;;;;5032478;28;19905;-51
2022/03/19 11:31:53;;;;;;;;;;;;;;;;;;5031217;28;19909;-51
2022/03/19 11:34:19;;;;;;;;;;;;;;;;;;5032370;28;20364;-49
2022/03/19 11:36:45;;;;;;;;;;;;;;;;;;5032404;28;19996;-50
2022/03/19 11:39:10;;;;;;;;;;;;;;;;;;5032472;28;19913;-52
2022/03/19 11:41:36;;;;;;;;;;;;;;;;;;5032491;28;20368;-52
2022/03/19 11:44:02;;;;;;;;;;;;;;;;;;5032551;28;19958;-53
2022/03/19 11:46:28;;;;;;;;;;;;;;;;;;5032432;28;19912;-54
2022/03/19 11:48:54;;;;;;;;;;;;;;;;;;5032486;28;19928;-55
2022/03/19 11:51:20;;;;;;;;;;;;;;;;;;5032654;28;20367;-52
2022/03/19 11:53:47;;;;;;;;;;;;;;;;;;5032736;28;19962;-53
2022/03/19 11:56:19;;;;;;;;;;;;;;;;;;5032447;28;20358;-57
2022/03/19 11:58:44;;;;;;;;;;;;;;;;;;5039080;28;19978;-55
2022/03/19 12:01:10;;;;;;;;;;;;;;;;;;5032408;28;20383;-56
2022/03/19 12:03:37;;;;;;;;;;;;;;;;;;5032133;28;19917;-54
2022/03/19 12:06:03;;;;;;;;;;;;;;;;;;5034807;28;19979;-56
2022/03/19 12:08:31;;;;;;;;;;;;;;;;;;5036301;28;19905;-55
2022/03/19 12:11:00;;;;;;;;;;;;;;;;;;5036214;28;19999;-55
2022/03/19 12:13:25;;;;;;;;;;;;;;;;;;5036214;28;20355;-56
2022/03/19 12:15:51;;;;;;;;;;;;;;;;;;5036356;28;19913;-55
2022/03/19 12:18:17;;;;;;;;;;;;;;;;;;5035908;28;20287;-55
2022/03/19 12:20:43;;;;;;;;;;;;;;;;;;5035912;28;19917;-56
2022/03/19 12:23:09;;;;;;;;;;;;;;;;;;5035948;28;19912;-55
2022/03/19 12:25:35;;;;;;;;;;;;;;;;;;5035812;28;19928;-55
2022/03/19 12:28:01;;;;;;;;;;;;;;;;;;5035751;28;20099;-55
2022/03/19 12:30:27;;;;;;;;;;;;;;;;;;5035720;28;20060;-56
2022/03/19 12:32:56;;;;;;;;;;;;;;;;;;5035760;28;19962;-56
2022/03/19 12:35:22;;;;;;;;;;;;;;;;;;5035683;28;19905;-55
2022/03/19 12:37:48;;;;;;;;;;;;;;;;;;5035753;28;19905;-55
2022/03/19 12:40:13;;;;;;;;;;;;;;;;;;5035893;28;19919;-55
2022/03/19 12:42:42;;;;;;;;;;;;;;;;;;5035518;28;20356;-55
2022/03/19 12:45:08;;;;;;;;;;;;;;;;;;5035563;28;19905;-55
2022/03/19 12:47:33;;;;;;;;;;;;;;;;;;5035731;28;20327;-56
2022/03/19 12:49:59;;;;;;;;;;;;;;;;;;5035478;28;19905;-56
2022/03/19 12:52:26;;;;;;;;;;;;;;;;;;5035370;28;19936;-55
2022/03/19 12:54:54;;;;;;;;;;;;;;;;;;5035576;28;19959;-56
2022/03/19 12:57:27;;;;;;;;;;;;;;;;;;5035515;28;19905;-55
2022/03/19 12:59:54;;;;;;;;;;;;;;;;;;5035501;28;19924;-50
2022/03/19 13:02:20;;;;;;;;;;;;;;;;;;5034878;28;20019;-51
2022/03/19 13:04:46;;;;;;;;;;;;;;;;;;5035392;28;19949;-50
2022/03/19 13:07:12;;;;;;;;;;;;;;;;;;5035058;28;19999;-50
2022/03/19 13:09:39;;;;;;;;;;;;;;;;;;5035278;28;19905;-50
2022/03/19 13:12:05;;;;;;;;;;;;;;;;;;5035063;28;19955;-49
2022/03/19 13:14:31;;;;;;;;;;;;;;;;;;5034996;28;19905;-50
2022/03/19 13:16:57;;;;;;;;;;;;;;;;;;5034941;28;20375;-50
2022/03/19 13:19:23;;;;;;;;;;;;;;;;;;5034775;28;20018;-50
2022/03/19 13:21:53;;;;;;;;;;;;;;;;;;5034813;28;19951;-49
2022/03/19 13:24:18;;;;;;;;;;;;;;;;;;5034791;28;19905;-48
2022/03/19 13:26:44;;;;;;;;;;;;;;;;;;5034734;28;20425;-50
2022/03/19 13:29:10;;;;;;;;;;;;;;;;;;5035023;28;19905;-50
2022/03/19 13:31:36;;;;;;;;;;;;;;;;;;5034724;28;20368;-50
2022/03/19 13:34:03;;;;;;;;;;;;;;;;;;5034711;28;20387;-52
2022/03/19 13:36:29;;;;;;;;;;;;;;;;;;5034435;28;19912;-57
2022/03/19 13:38:55;;;;;;;;;;;;;;;;;;5034470;28;19905;-57
2022/03/19 13:41:21;;;;;;;;;;;;;;;;;;5034567;28;19951;-55
2022/03/19 13:43:46;;;;;;;;;;;;;;;;;;5034328;28;19905;-55
2022/03/19 13:46:12;;;;;;;;;;;;;;;;;;5034468;28;19912;-54
2022/03/19 13:48:39;;;;;;;;;;;;;;;;;;5034592;28;19930;-53
2022/03/19 13:51:05;;;;;;;;;;;;;;;;;;5034352;28;19905;-55
2022/03/19 13:53:31;;;;;;;;;;;;;;;;;;5034343;28;19905;-55
2022/03/19 13:55:57;;;;;;;;;;;;;;;;;;5034451;28;20407;-52
2022/03/19 13:58:24;;;;;;;;;;;;;;;;;;5034456;28;19983;-54
2022/03/19 14:00:50;;;;;;;;;;;;;;;;;;5034374;28;19913;-52
2022/03/19 14:03:16;;;;;;;;;;;;;;;;;;5034173;28;19917;-52
2022/03/19 14:05:42;;;;;;;;;;;;;;;;;;5033979;28;19912;-55
2022/03/19 14:08:10;;;;;;;;;;;;;;;;;;5034293;28;19905;-55
2022/03/19 14:10:36;;;;;;;;;;;;;;;;;;5034302;28;19905;-53
2022/03/19 14:13:02;;;;;;;;;;;;;;;;;;5034207;28;20270;-54
2022/03/19 14:15:28;;;;;;;;;;;;;;;;;;5033917;28;19905;-54
2022/03/19 14:17:54;;;;;;;;;;;;;;;;;;5033757;28;19959;-55
2022/03/19 14:20:20;;;;;;;;;;;;;;;;;;5033733;28;19913;-56
2022/03/19 14:22:46;;;;;;;;;;;;;;;;;;5033992;28;19905;-56
2022/03/19 14:25:11;;;;;;;;;;;;;;;;;;5033701;28;20287;-55
2022/03/19 14:27:37;;;;;;;;;;;;;;;;;;5033058;28;19905;-56
2022/03/19 14:30:04;;;;;;;;;;;;;;;;;;5033614;28;19909;-55
2022/03/19 14:32:29;;;;;;;;;;;;;;;;;;5033821;28;19911;-56
2022/03/19 14:34:55;;;;;;;;;;;;;;;;;;5033424;28;19904;-54
2022/03/19 14:37:21;;;;;;;;;;;;;;;;;;5033671;28;19905;-56
2022/03/19 14:39:47;;;;;;;;;;;;;;;;;;5033343;28;19913;-54
2022/03/19 14:42:13;;;;;;;;;;;;;;;;;;5033322;28;19916;-55
2022/03/19 14:44:39;;;;;;;;;;;;;;;;;;5033351;28;20326;-55
2022/03/19 14:47:06;;;;;;;;;;;;;;;;;;5033327;28;19905;-56
2022/03/19 14:49:31;;;;;;;;;;;;;;;;;;5033304;28;20000;-56
2022/03/19 14:51:57;;;;;;;;;;;;;;;;;;5033491;28;19943;-57
2022/03/19 14:54:23;;;;;;;;;;;;;;;;;;5033124;28;19954;-56
2022/03/19 14:56:50;;;;;;;;;;;;;;;;;;5033077;28;19905;-56
2022/03/19 14:59:16;;;;;;;;;;;;;;;;;;5033052;28;19913;-56
2022/03/19 15:01:41;;;;;;;;;;;;;;;;;;5032951;28;19912;-57
2022/03/19 15:04:12;;;;;;;;;;;;;;;;;;5032901;28;20019;-57
2022/03/19 15:06:38;;;;;;;;;;;;;;;;;;5033052;28;19952;-58
2022/03/19 15:09:04;;;;;;;;;;;;;;;;;;5032859;28;19905;-57
2022/03/19 15:11:30;;;;;;;;;;;;;;;;;;5032859;28;19905;-57
2022/03/19 15:13:56;;;;;;;;;;;;;;;;;;5032852;28;20334;-58
2022/03/19 15:16:23;;;;;;;;;;;;;;;;;;5033048;28;19936;-59
2022/03/19 15:18:49;;;;;;;;;;;;;;;;;;5032769;28;19905;-57
2022/03/19 15:21:15;;;;;;;;;;;;;;;;;;5032645;28;20364;-57
2022/03/19 15:23:41;;;;;;;;;;;;;;;;;;5032998;28;19959;-58
2022/03/19 15:26:07;;;;;;;;;;;;;;;;;;5032681;28;19905;-57
2022/03/19 15:28:33;;;;;;;;;;;;;;;;;;5032615;28;20388;-58
2022/03/19 15:30:59;;;;;;;;;;;;;;;;;;5032563;28;19912;-58
2022/03/19 15:33:25;;;;;;;;;;;;;;;;;;5032683;28;20363;-61
2022/03/19 15:35:51;;;;;;;;;;;;;;;;;;5032623;28;19955;-57
2022/03/19 15:38:17;;;;;;;;;;;;;;;;;;5032561;28;19908;-58
2022/03/19 15:40:43;;;;;;;;;;;;;;;;;;5036370;28;19924;-58
2022/03/19 15:43:10;;;;;;;;;;;;;;;;;;5036789;28;19912;-58
2022/03/19 15:45:36;;;;;;;;;;;;;;;;;;5036988;28;19951;-58
2022/03/19 15:48:03;;;;;;;;;;;;;;;;;;5036861;28;20290;-57
2022/03/19 15:50:28;;;;;;;;;;;;;;;;;;5036678;28;20291;-57
2022/03/19 15:52:54;;;;;;;;;;;;;;;;;;5036524;28;19905;-58
2022/03/19 15:55:20;;;;;;;;;;;;;;;;;;5036324;28;20318;-57
2022/03/19 15:57:46;;;;;;;;;;;;;;;;;;5036409;28;19913;-57
2022/03/19 16:00:13;;;;;;;;;;;;;;;;;;5036608;28;20291;-58
2022/03/19 16:02:39;;;;;;;;;;;;;;;;;;5036205;28;20000;-57
2022/03/19 16:05:05;;;;;;;;;;;;;;;;;;5036310;28;19951;-57
2022/03/19 16:07:31;;;;;;;;;;;;;;;;;;5036303;28;20284;-55
2022/03/19 16:09:56;;;;;;;;;;;;;;;;;;5036183;28;20268;-57
2022/03/19 16:12:22;;;;;;;;;;;;;;;;;;5036117;28;19911;-57
2022/03/19 16:14:51;;;;;;;;;;;;;;;;;;5036461;28;19912;-56
2022/03/19 16:17:16;;;;;;;;;;;;;;;;;;5036135;28;19958;-57
2022/03/19 16:19:42;;;;;;;;;;;;;;;;;;5035940;28;20008;-57
2022/03/19 16:22:08;;;;;;;;;;;;;;;;;;5036285;28;19905;-57
2022/03/19 16:24:34;;;;;;;;;;;;;;;;;;5036186;28;19944;-58
2022/03/19 16:27:00;;;;;;;;;;;;;;;;;;5035797;28;19928;-57
2022/03/19 16:29:26;;;;;;;;;;;;;;;;;;5035769;28;20363;-58
2022/03/19 16:31:52;;;;;;;;;;;;;;;;;;5035610;28;19951;-57
2022/03/19 16:34:19;;;;;;;;;;;;;;;;;;5035556;28;19905;-58
2022/03/19 16:36:45;;;;;;;;;;;;;;;;;;5035768;28;19963;-57
2022/03/19 16:39:11;;;;;;;;;;;;;;;;;;5035495;28;19960;-57
2022/03/19 16:41:36;;;;;;;;;;;;;;;;;;5035340;28;19912;-57
2022/03/19 16:44:02;;;;;;;;;;;;;;;;;;5035450;28;19912;-54
2022/03/19 16:46:28;;;;;;;;;;;;;;;;;;5035816;28;19905;-56
2022/03/19 16:48:54;;;;;;;;;;;;;;;;;;5035445;28;19913;-56
2022/03/19 16:51:20;;;;;;;;;;;;;;;;;;5035007;28;19950;-55
2022/03/19 16:53:46;;;;;;;;;;;;;;;;;;5035359;28;20333;-57